Main page
METAR-TAF:

METAR-TAF

Airports :

Giddings–Lee County Airport

Giddings, Texas, United States

latitude: 30-10-09N, longitude: 096-58-48W, elevation: 485 ft

Current weather observation

The report was made 16 minutes ago, at 13:15 UTC
Calm wind
Temperature 43°F
Humidity 65%
Pressure 30.38 in. Hg
Visibility: 10 miles
Clear sky

METAR: KGYB 281315Z AUTO 00000KT 10SM CLR 06/00 A3038 RMK AO2 T00550003

Time: 07:31 (13:31 UTC)


TAF: missing

Weather observations and forecasts of more than 4000 airports (METAR and TAF reports).

The available stations are represented by yellow and red dots on the map.

Hover mouse over dot to see the name of the station.

Then click to see weather observations and forecasts.

To change the map : click on the green buttons with a black cross to zoom in, on the green button with a dash to zoom out, or on the green arrows for adjacent maps.


METAR-TAF: